sensor_id;sensor_type;location;lat;lon;timestamp;P1;durP1;ratioP1;P2;durP2;ratioP2
29422;SDS011;16399;51.686;8.684;2023-03-13T00:00:40;20.70;;;3.80;;
29422;SDS011;16399;51.686;8.684;2023-03-13T00:03:42;21.52;;;3.80;;
29422;SDS011;16399;51.686;8.684;2023-03-13T00:06:44;15.30;;;3.10;;
29422;SDS011;16399;51.686;8.684;2023-03-13T00:09:47;22.30;;;3.72;;
29422;SDS011;16399;51.686;8.684;2023-03-13T00:12:50;19.25;;;4.08;;
29422;SDS011;16399;51.686;8.684;2023-03-13T00:16:15;15.70;;;3.20;;
29422;SDS011;16399;51.686;8.684;2023-03-13T00:19:04;15.20;;;2.95;;
29422;SDS011;16399;51.686;8.684;2023-03-13T00:22:08;15.28;;;3.02;;
29422;SDS011;16399;51.686;8.684;2023-03-13T00:25:12;20.52;;;3.87;;
29422;SDS011;16399;51.686;8.684;2023-03-13T00:28:14;15.75;;;2.90;;
29422;SDS011;16399;51.686;8.684;2023-03-13T00:31:17;21.12;;;3.47;;
29422;SDS011;16399;51.686;8.684;2023-03-13T00:34:21;19.82;;;4.12;;
29422;SDS011;16399;51.686;8.684;2023-03-13T00:37:25;14.85;;;2.92;;
29422;SDS011;16399;51.686;8.684;2023-03-13T00:40:27;18.20;;;3.40;;
29422;SDS011;16399;51.686;8.684;2023-03-13T00:43:29;20.30;;;4.28;;
29422;SDS011;16399;51.686;8.684;2023-03-13T00:46:32;13.45;;;2.60;;
29422;SDS011;16399;51.686;8.684;2023-03-13T00:49:35;20.68;;;3.20;;
29422;SDS011;16399;51.686;8.684;2023-03-13T00:52:37;13.72;;;3.00;;
29422;SDS011;16399;51.686;8.684;2023-03-13T00:55:49;19.07;;;3.12;;
29422;SDS011;16399;51.686;8.684;2023-03-13T00:58:59;16.80;;;3.08;;
29422;SDS011;16399;51.686;8.684;2023-03-13T01:02:01;19.57;;;4.15;;
29422;SDS011;16399;51.686;8.684;2023-03-13T01:05:04;14.55;;;2.77;;
29422;SDS011;16399;51.686;8.684;2023-03-13T01:08:07;17.75;;;3.25;;
29422;SDS011;16399;51.686;8.684;2023-03-13T01:11:11;17.87;;;3.22;;
29422;SDS011;16399;51.686;8.684;2023-03-13T01:14:16;20.50;;;3.05;;
29422;SDS011;16399;51.686;8.684;2023-03-13T01:17:20;13.80;;;3.22;;
29422;SDS011;16399;51.686;8.684;2023-03-13T01:20:22;16.48;;;3.20;;
29422;SDS011;16399;51.686;8.684;2023-03-13T01:23:24;15.80;;;2.77;;
29422;SDS011;16399;51.686;8.684;2023-03-13T01:26:27;19.57;;;3.22;;
29422;SDS011;16399;51.686;8.684;2023-03-13T01:29:29;14.75;;;2.80;;
29422;SDS011;16399;51.686;8.684;2023-03-13T01:32:32;14.70;;;4.35;;
29422;SDS011;16399;51.686;8.684;2023-03-13T01:35:35;16.67;;;3.00;;
29422;SDS011;16399;51.686;8.684;2023-03-13T01:38:37;18.90;;;3.17;;
29422;SDS011;16399;51.686;8.684;2023-03-13T01:41:40;15.68;;;3.22;;
29422;SDS011;16399;51.686;8.684;2023-03-13T01:44:53;17.62;;;2.80;;
29422;SDS011;16399;51.686;8.684;2023-03-13T01:47:57;15.10;;;2.80;;
29422;SDS011;16399;51.686;8.684;2023-03-13T01:51:00;17.87;;;4.17;;
29422;SDS011;16399;51.686;8.684;2023-03-13T01:54:16;14.63;;;3.35;;
29422;SDS011;16399;51.686;8.684;2023-03-13T01:57:32;17.77;;;3.35;;
29422;SDS011;16399;51.686;8.684;2023-03-13T02:00:36;18.37;;;3.15;;
29422;SDS011;16399;51.686;8.684;2023-03-13T02:03:42;18.30;;;3.00;;
29422;SDS011;16399;51.686;8.684;2023-03-13T02:06:45;18.27;;;3.20;;
29422;SDS011;16399;51.686;8.684;2023-03-13T02:09:50;16.52;;;3.15;;
29422;SDS011;16399;51.686;8.684;2023-03-13T02:12:54;18.90;;;3.05;;
29422;SDS011;16399;51.686;8.684;2023-03-13T02:15:59;17.85;;;3.08;;
29422;SDS011;16399;51.686;8.684;2023-03-13T02:19:04;17.82;;;3.40;;
29422;SDS011;16399;51.686;8.684;2023-03-13T02:22:16;12.40;;;2.77;;
29422;SDS011;16399;51.686;8.684;2023-03-13T02:25:34;17.02;;;2.77;;
29422;SDS011;16399;51.686;8.684;2023-03-13T02:28:42;17.25;;;2.98;;
29422;SDS011;16399;51.686;8.684;2023-03-13T02:31:46;18.92;;;2.70;;
29422;SDS011;16399;51.686;8.684;2023-03-13T02:34:49;13.30;;;2.83;;
29422;SDS011;16399;51.686;8.684;2023-03-13T02:38:00;17.82;;;2.95;;
29422;SDS011;16399;51.686;8.684;2023-03-13T02:40:59;18.07;;;3.27;;
29422;SDS011;16399;51.686;8.684;2023-03-13T02:44:05;15.25;;;2.65;;
29422;SDS011;16399;51.686;8.684;2023-03-13T02:47:07;17.57;;;2.75;;
29422;SDS011;16399;51.686;8.684;2023-03-13T02:50:10;17.62;;;3.08;;
29422;SDS011;16399;51.686;8.684;2023-03-13T02:53:13;17.57;;;2.87;;
29422;SDS011;16399;51.686;8.684;2023-03-13T02:56:16;12.80;;;2.92;;
29422;SDS011;16399;51.686;8.684;2023-03-13T02:59:21;15.32;;;2.70;;
29422;SDS011;16399;51.686;8.684;2023-03-13T03:02:23;11.90;;;2.35;;
29422;SDS011;16399;51.686;8.684;2023-03-13T03:05:26;15.98;;;2.77;;
29422;SDS011;16399;51.686;8.684;2023-03-13T03:08:28;13.62;;;2.52;;
29422;SDS011;16399;51.686;8.684;2023-03-13T03:11:30;19.50;;;2.90;;
29422;SDS011;16399;51.686;8.684;2023-03-13T03:14:33;15.08;;;3.08;;
29422;SDS011;16399;51.686;8.684;2023-03-13T03:17:35;10.80;;;2.40;;
29422;SDS011;16399;51.686;8.684;2023-03-13T03:20:38;12.70;;;2.62;;
29422;SDS011;16399;51.686;8.684;2023-03-13T03:23:40;10.93;;;2.08;;
29422;SDS011;16399;51.686;8.684;2023-03-13T03:26:42;15.45;;;2.60;;
29422;SDS011;16399;51.686;8.684;2023-03-13T03:29:45;18.98;;;2.80;;
29422;SDS011;16399;51.686;8.684;2023-03-13T03:32:47;15.43;;;2.10;;
29422;SDS011;16399;51.686;8.684;2023-03-13T03:35:50;8.68;;;2.10;;
29422;SDS011;16399;51.686;8.684;2023-03-13T03:38:52;8.73;;;2.05;;
29422;SDS011;16399;51.686;8.684;2023-03-13T03:41:54;11.15;;;2.35;;
29422;SDS011;16399;51.686;8.684;2023-03-13T03:44:57;8.00;;;2.37;;
29422;SDS011;16399;51.686;8.684;2023-03-13T03:47:59;11.22;;;2.47;;
29422;SDS011;16399;51.686;8.684;2023-03-13T03:51:01;10.23;;;2.17;;
29422;SDS011;16399;51.686;8.684;2023-03-13T03:54:04;10.23;;;1.95;;
29422;SDS011;16399;51.686;8.684;2023-03-13T03:57:06;10.90;;;1.95;;
29422;SDS011;16399;51.686;8.684;2023-03-13T04:00:09;7.22;;;1.35;;
29422;SDS011;16399;51.686;8.684;2023-03-13T04:03:14;6.92;;;1.50;;
29422;SDS011;16399;51.686;8.684;2023-03-13T04:06:17;12.20;;;1.60;;
29422;SDS011;16399;51.686;8.684;2023-03-13T04:09:20;9.70;;;1.47;;
29422;SDS011;16399;51.686;8.684;2023-03-13T04:12:23;5.15;;;1.10;;
29422;SDS011;16399;51.686;8.684;2023-03-13T04:15:25;7.17;;;1.85;;
29422;SDS011;16399;51.686;8.684;2023-03-13T04:18:28;5.20;;;1.20;;
29422;SDS011;16399;51.686;8.684;2023-03-13T04:21:30;8.08;;;1.17;;
29422;SDS011;16399;51.686;8.684;2023-03-13T04:24:33;6.25;;;1.02;;
29422;SDS011;16399;51.686;8.684;2023-03-13T04:27:35;2.85;;;0.85;;
29422;SDS011;16399;51.686;8.684;2023-03-13T04:30:38;3.47;;;1.27;;
29422;SDS011;16399;51.686;8.684;2023-03-13T04:33:40;3.58;;;0.85;;
29422;SDS011;16399;51.686;8.684;2023-03-13T04:36:43;2.50;;;0.70;;
29422;SDS011;16399;51.686;8.684;2023-03-13T04:39:45;4.10;;;0.80;;
29422;SDS011;16399;51.686;8.684;2023-03-13T04:42:47;3.35;;;0.80;;
29422;SDS011;16399;51.686;8.684;2023-03-13T04:45:53;4.45;;;0.82;;
29422;SDS011;16399;51.686;8.684;2023-03-13T04:48:55;3.80;;;0.93;;
29422;SDS011;16399;51.686;8.684;2023-03-13T04:51:57;4.10;;;1.02;;
29422;SDS011;16399;51.686;8.684;2023-03-13T04:54:59;3.95;;;0.80;;
29422;SDS011;16399;51.686;8.684;2023-03-13T04:58:02;4.40;;;0.70;;
29422;SDS011;16399;51.686;8.684;2023-03-13T05:01:04;3.65;;;0.90;;
29422;SDS011;16399;51.686;8.684;2023-03-13T05:04:06;3.10;;;0.68;;
29422;SDS011;16399;51.686;8.684;2023-03-13T05:07:09;3.58;;;0.85;;
29422;SDS011;16399;51.686;8.684;2023-03-13T05:10:12;5.05;;;0.82;;
29422;SDS011;16399;51.686;8.684;2023-03-13T05:13:14;4.33;;;0.62;;
29422;SDS011;16399;51.686;8.684;2023-03-13T05:16:17;3.83;;;0.80;;
29422;SDS011;16399;51.686;8.684;2023-03-13T05:19:20;3.75;;;0.90;;
29422;SDS011;16399;51.686;8.684;2023-03-13T05:22:22;1.92;;;0.62;;
29422;SDS011;16399;51.686;8.684;2023-03-13T05:25:24;3.35;;;1.02;;
29422;SDS011;16399;51.686;8.684;2023-03-13T05:28:27;4.05;;;0.82;;
29422;SDS011;16399;51.686;8.684;2023-03-13T05:31:29;4.62;;;0.80;;
29422;SDS011;16399;51.686;8.684;2023-03-13T05:34:31;4.15;;;0.70;;
29422;SDS011;16399;51.686;8.684;2023-03-13T05:37:34;2.00;;;0.70;;
29422;SDS011;16399;51.686;8.684;2023-03-13T05:40:36;4.28;;;1.10;;
29422;SDS011;16399;51.686;8.684;2023-03-13T05:43:38;2.60;;;0.70;;
29422;SDS011;16399;51.686;8.684;2023-03-13T05:46:41;2.37;;;0.65;;
29422;SDS011;16399;51.686;8.684;2023-03-13T05:49:43;3.25;;;0.85;;
29422;SDS011;16399;51.686;8.684;2023-03-13T05:52:45;2.58;;;0.62;;
29422;SDS011;16399;51.686;8.684;2023-03-13T05:55:48;1.80;;;0.55;;
29422;SDS011;16399;51.686;8.684;2023-03-13T05:58:50;1.27;;;0.70;;
29422;SDS011;16399;51.686;8.684;2023-03-13T06:01:52;2.87;;;0.70;;
29422;SDS011;16399;51.686;8.684;2023-03-13T06:04:54;4.35;;;0.93;;
29422;SDS011;16399;51.686;8.684;2023-03-13T06:07:57;1.67;;;0.50;;
29422;SDS011;16399;51.686;8.684;2023-03-13T06:11:00;2.02;;;0.50;;
29422;SDS011;16399;51.686;8.684;2023-03-13T06:14:03;1.98;;;0.70;;
29422;SDS011;16399;51.686;8.684;2023-03-13T06:17:05;1.45;;;0.50;;
29422;SDS011;16399;51.686;8.684;2023-03-13T06:20:08;2.70;;;0.60;;
29422;SDS011;16399;51.686;8.684;2023-03-13T06:23:11;2.10;;;0.65;;
29422;SDS011;16399;51.686;8.684;2023-03-13T06:26:13;0.75;;;0.40;;
29422;SDS011;16399;51.686;8.684;2023-03-13T06:29:15;1.47;;;0.50;;
29422;SDS011;16399;51.686;8.684;2023-03-13T06:32:18;1.40;;;0.62;;
29422;SDS011;16399;51.686;8.684;2023-03-13T06:35:20;1.30;;;0.50;;
29422;SDS011;16399;51.686;8.684;2023-03-13T06:38:23;1.95;;;0.40;;
29422;SDS011;16399;51.686;8.684;2023-03-13T06:41:25;1.52;;;0.62;;
29422;SDS011;16399;51.686;8.684;2023-03-13T06:44:28;0.88;;;0.40;;
29422;SDS011;16399;51.686;8.684;2023-03-13T06:47:30;1.52;;;0.53;;
29422;SDS011;16399;51.686;8.684;2023-03-13T06:50:36;2.05;;;0.60;;
29422;SDS011;16399;51.686;8.684;2023-03-13T06:53:40;2.62;;;1.20;;
29422;SDS011;16399;51.686;8.684;2023-03-13T06:56:42;1.77;;;0.82;;
29422;SDS011;16399;51.686;8.684;2023-03-13T06:59:45;2.40;;;0.68;;
29422;SDS011;16399;51.686;8.684;2023-03-13T07:02:47;6.05;;;0.70;;
29422;SDS011;16399;51.686;8.684;2023-03-13T07:05:54;4.20;;;0.53;;
29422;SDS011;16399;51.686;8.684;2023-03-13T07:08:57;2.55;;;0.80;;
29422;SDS011;16399;51.686;8.684;2023-03-13T07:11:59;1.30;;;0.60;;
29422;SDS011;16399;51.686;8.684;2023-03-13T07:15:03;2.02;;;0.85;;
29422;SDS011;16399;51.686;8.684;2023-03-13T07:18:06;2.20;;;0.60;;
29422;SDS011;16399;51.686;8.684;2023-03-13T07:21:09;2.52;;;0.70;;
29422;SDS011;16399;51.686;8.684;2023-03-13T07:24:11;3.65;;;1.07;;
29422;SDS011;16399;51.686;8.684;2023-03-13T07:27:14;2.02;;;0.70;;
29422;SDS011;16399;51.686;8.684;2023-03-13T07:30:19;2.40;;;0.60;;
29422;SDS011;16399;51.686;8.684;2023-03-13T07:33:21;2.40;;;0.60;;
29422;SDS011;16399;51.686;8.684;2023-03-13T07:36:23;2.67;;;0.60;;
29422;SDS011;16399;51.686;8.684;2023-03-13T07:39:26;4.03;;;1.02;;
29422;SDS011;16399;51.686;8.684;2023-03-13T07:42:29;2.08;;;0.70;;
29422;SDS011;16399;51.686;8.684;2023-03-13T07:45:31;1.95;;;0.60;;
29422;SDS011;16399;51.686;8.684;2023-03-13T07:48:34;1.45;;;0.65;;
29422;SDS011;16399;51.686;8.684;2023-03-13T07:51:38;0.98;;;0.57;;
29422;SDS011;16399;51.686;8.684;2023-03-13T07:54:40;2.05;;;0.70;;
29422;SDS011;16399;51.686;8.684;2023-03-13T07:57:43;1.80;;;0.72;;
29422;SDS011;16399;51.686;8.684;2023-03-13T08:00:45;2.60;;;1.05;;
29422;SDS011;16399;51.686;8.684;2023-03-13T08:03:48;1.72;;;0.60;;
29422;SDS011;16399;51.686;8.684;2023-03-13T08:06:53;2.08;;;0.57;;
29422;SDS011;16399;51.686;8.684;2023-03-13T08:09:56;3.15;;;0.60;;
29422;SDS011;16399;51.686;8.684;2023-03-13T08:12:58;2.65;;;0.80;;
29422;SDS011;16399;51.686;8.684;2023-03-13T08:16:02;1.82;;;0.60;;
29422;SDS011;16399;51.686;8.684;2023-03-13T08:19:06;1.98;;;0.60;;
29422;SDS011;16399;51.686;8.684;2023-03-13T08:22:08;4.40;;;0.82;;
29422;SDS011;16399;51.686;8.684;2023-03-13T08:25:11;3.47;;;0.62;;
29422;SDS011;16399;51.686;8.684;2023-03-13T08:28:13;2.80;;;0.82;;
29422;SDS011;16399;51.686;8.684;2023-03-13T08:31:17;2.62;;;0.68;;
29422;SDS011;16399;51.686;8.684;2023-03-13T08:34:21;2.33;;;1.02;;
29422;SDS011;16399;51.686;8.684;2023-03-13T08:37:23;1.65;;;0.80;;
29422;SDS011;16399;51.686;8.684;2023-03-13T08:40:25;2.52;;;0.90;;
29422;SDS011;16399;51.686;8.684;2023-03-13T08:43:28;4.97;;;2.05;;
29422;SDS011;16399;51.686;8.684;2023-03-13T08:46:31;2.52;;;1.00;;
29422;SDS011;16399;51.686;8.684;2023-03-13T08:49:35;7.97;;;1.10;;
29422;SDS011;16399;51.686;8.684;2023-03-13T08:52:37;2.40;;;0.90;;
29422;SDS011;16399;51.686;8.684;2023-03-13T08:55:39;2.55;;;0.88;;
29422;SDS011;16399;51.686;8.684;2023-03-13T08:58:42;2.30;;;0.90;;
29422;SDS011;16399;51.686;8.684;2023-03-13T09:01:44;5.75;;;1.10;;
29422;SDS011;16399;51.686;8.684;2023-03-13T09:04:47;3.12;;;1.22;;
29422;SDS011;16399;51.686;8.684;2023-03-13T09:07:49;1.98;;;1.00;;
29422;SDS011;16399;51.686;8.684;2023-03-13T09:11:00;2.98;;;0.90;;
29422;SDS011;16399;51.686;8.684;2023-03-13T09:13:59;5.28;;;1.30;;
29422;SDS011;16399;51.686;8.684;2023-03-13T09:17:01;4.10;;;1.00;;
29422;SDS011;16399;51.686;8.684;2023-03-13T09:20:04;2.80;;;1.17;;
29422;SDS011;16399;51.686;8.684;2023-03-13T09:23:07;3.70;;;1.20;;
29422;SDS011;16399;51.686;8.684;2023-03-13T09:26:10;3.02;;;1.10;;
29422;SDS011;16399;51.686;8.684;2023-03-13T09:29:13;7.47;;;2.12;;
29422;SDS011;16399;51.686;8.684;2023-03-13T09:32:15;4.65;;;1.20;;
29422;SDS011;16399;51.686;8.684;2023-03-13T09:35:19;4.42;;;1.10;;
29422;SDS011;16399;51.686;8.684;2023-03-13T09:38:22;5.72;;;1.35;;
29422;SDS011;16399;51.686;8.684;2023-03-13T09:44:39;2.30;;;1.20;;
29422;SDS011;16399;51.686;8.684;2023-03-13T09:47:47;2.20;;;0.95;;
29422;SDS011;16399;51.686;8.684;2023-03-13T09:51:02;5.33;;;1.05;;
29422;SDS011;16399;51.686;8.684;2023-03-13T09:54:07;3.05;;;1.20;;
29422;SDS011;16399;51.686;8.684;2023-03-13T09:57:19;4.78;;;1.22;;
29422;SDS011;16399;51.686;8.684;2023-03-13T10:00:28;2.13;;;1.00;;
29422;SDS011;16399;51.686;8.684;2023-03-13T10:03:41;5.60;;;1.60;;
29422;SDS011;16399;51.686;8.684;2023-03-13T10:06:53;4.60;;;2.00;;
29422;SDS011;16399;51.686;8.684;2023-03-13T10:09:56;5.08;;;1.65;;
29422;SDS011;16399;51.686;8.684;2023-03-13T10:13:02;5.87;;;1.27;;
29422;SDS011;16399;51.686;8.684;2023-03-13T10:16:09;5.42;;;1.37;;
29422;SDS011;16399;51.686;8.684;2023-03-13T10:19:15;4.37;;;1.30;;
29422;SDS011;16399;51.686;8.684;2023-03-13T10:25:36;3.30;;;1.20;;
29422;SDS011;16399;51.686;8.684;2023-03-13T10:28:37;3.90;;;1.32;;
29422;SDS011;16399;51.686;8.684;2023-03-13T10:31:40;2.80;;;1.10;;
29422;SDS011;16399;51.686;8.684;2023-03-13T10:34:47;3.67;;;1.45;;
29422;SDS011;16399;51.686;8.684;2023-03-13T10:37:59;3.22;;;1.75;;
29422;SDS011;16399;51.686;8.684;2023-03-13T10:41:28;1.95;;;1.10;;
29422;SDS011;16399;51.686;8.684;2023-03-13T10:44:33;2.35;;;0.90;;
29422;SDS011;16399;51.686;8.684;2023-03-13T10:47:35;3.98;;;1.20;;
29422;SDS011;16399;51.686;8.684;2023-03-13T10:50:40;2.90;;;1.10;;
29422;SDS011;16399;51.686;8.684;2023-03-13T10:53:44;3.25;;;1.07;;
29422;SDS011;16399;51.686;8.684;2023-03-13T10:56:46;6.08;;;1.12;;
29422;SDS011;16399;51.686;8.684;2023-03-13T10:59:49;2.77;;;0.95;;
29422;SDS011;16399;51.686;8.684;2023-03-13T11:02:53;3.12;;;1.02;;
29422;SDS011;16399;51.686;8.684;2023-03-13T11:05:57;2.95;;;1.00;;
29422;SDS011;16399;51.686;8.684;2023-03-13T11:09:12;2.17;;;0.85;;
29422;SDS011;16399;51.686;8.684;2023-03-13T11:12:16;3.30;;;1.10;;
29422;SDS011;16399;51.686;8.684;2023-03-13T11:15:22;2.50;;;0.90;;
29422;SDS011;16399;51.686;8.684;2023-03-13T11:18:57;3.58;;;0.95;;
29422;SDS011;16399;51.686;8.684;2023-03-13T11:25:30;4.25;;;1.00;;
29422;SDS011;16399;51.686;8.684;2023-03-13T11:28:38;4.60;;;1.00;;
29422;SDS011;16399;51.686;8.684;2023-03-13T11:31:57;5.08;;;1.20;;
29422;SDS011;16399;51.686;8.684;2023-03-13T11:35:03;1.80;;;0.90;;
29422;SDS011;16399;51.686;8.684;2023-03-13T11:38:08;4.95;;;0.90;;
29422;SDS011;16399;51.686;8.684;2023-03-13T11:52:11;2.92;;;0.72;;
29422;SDS011;16399;51.686;8.684;2023-03-13T11:55:40;3.10;;;0.90;;
29422;SDS011;16399;51.686;8.684;2023-03-13T12:01:59;5.90;;;0.90;;
29422;SDS011;16399;51.686;8.684;2023-03-13T12:05:09;2.65;;;0.80;;
29422;SDS011;16399;51.686;8.684;2023-03-13T12:08:11;2.10;;;0.82;;
29422;SDS011;16399;51.686;8.684;2023-03-13T12:14:27;1.80;;;0.70;;
29422;SDS011;16399;51.686;8.684;2023-03-13T12:17:45;1.70;;;0.80;;
29422;SDS011;16399;51.686;8.684;2023-03-13T12:23:58;2.37;;;0.75;;
29422;SDS011;16399;51.686;8.684;2023-03-13T12:27:33;2.52;;;0.82;;
29422;SDS011;16399;51.686;8.684;2023-03-13T12:30:44;1.47;;;0.75;;
29422;SDS011;16399;51.686;8.684;2023-03-13T12:33:56;2.80;;;0.90;;
29422;SDS011;16399;51.686;8.684;2023-03-13T12:37:01;1.98;;;0.72;;
29422;SDS011;16399;51.686;8.684;2023-03-13T12:40:20;3.77;;;0.80;;
29422;SDS011;16399;51.686;8.684;2023-03-13T12:43:23;2.47;;;0.68;;
29422;SDS011;16399;51.686;8.684;2023-03-13T12:46:34;1.15;;;0.60;;
29422;SDS011;16399;51.686;8.684;2023-03-13T12:49:44;2.45;;;0.70;;
29422;SDS011;16399;51.686;8.684;2023-03-13T12:53:02;2.05;;;0.68;;
29422;SDS011;16399;51.686;8.684;2023-03-13T12:56:26;1.75;;;0.70;;
29422;SDS011;16399;51.686;8.684;2023-03-13T12:59:38;2.40;;;0.60;;
29422;SDS011;16399;51.686;8.684;2023-03-13T13:02:45;3.62;;;1.20;;
29422;SDS011;16399;51.686;8.684;2023-03-13T13:09:24;2.60;;;0.60;;
29422;SDS011;16399;51.686;8.684;2023-03-13T13:12:24;1.72;;;0.60;;
29422;SDS011;16399;51.686;8.684;2023-03-13T13:15:27;2.95;;;0.75;;
29422;SDS011;16399;51.686;8.684;2023-03-13T13:18:30;3.90;;;0.70;;
29422;SDS011;16399;51.686;8.684;2023-03-13T13:21:34;2.70;;;0.78;;
29422;SDS011;16399;51.686;8.684;2023-03-13T13:24:38;2.98;;;0.80;;
29422;SDS011;16399;51.686;8.684;2023-03-13T13:30:48;3.00;;;0.65;;
29422;SDS011;16399;51.686;8.684;2023-03-13T13:33:52;2.60;;;0.60;;
29422;SDS011;16399;51.686;8.684;2023-03-13T13:36:54;3.15;;;0.75;;
29422;SDS011;16399;51.686;8.684;2023-03-13T13:43:20;2.95;;;0.50;;
29422;SDS011;16399;51.686;8.684;2023-03-13T13:46:30;6.83;;;0.80;;
29422;SDS011;16399;51.686;8.684;2023-03-13T13:49:35;1.20;;;0.50;;
29422;SDS011;16399;51.686;8.684;2023-03-13T13:52:39;0.88;;;0.42;;
29422;SDS011;16399;51.686;8.684;2023-03-13T13:55:42;0.90;;;0.50;;
29422;SDS011;16399;51.686;8.684;2023-03-13T13:58:45;0.68;;;0.50;;
29422;SDS011;16399;51.686;8.684;2023-03-13T14:01:48;0.85;;;0.50;;
29422;SDS011;16399;51.686;8.684;2023-03-13T14:05:17;2.67;;;0.87;;
29422;SDS011;16399;51.686;8.684;2023-03-13T14:08:23;0.62;;;0.42;;
29422;SDS011;16399;51.686;8.684;2023-03-13T14:11:36;3.40;;;0.80;;
29422;SDS011;16399;51.686;8.684;2023-03-13T14:14:39;1.37;;;0.68;;
29422;SDS011;16399;51.686;8.684;2023-03-13T14:17:43;3.45;;;0.70;;
29422;SDS011;16399;51.686;8.684;2023-03-13T14:20:58;1.20;;;0.60;;
29422;SDS011;16399;51.686;8.684;2023-03-13T14:24:13;2.87;;;0.62;;
29422;SDS011;16399;51.686;8.684;2023-03-13T14:27:16;1.10;;;0.50;;
29422;SDS011;16399;51.686;8.684;2023-03-13T14:30:21;1.52;;;0.45;;
29422;SDS011;16399;51.686;8.684;2023-03-13T14:33:24;1.30;;;0.50;;
29422;SDS011;16399;51.686;8.684;2023-03-13T14:36:27;1.57;;;0.68;;
29422;SDS011;16399;51.686;8.684;2023-03-13T14:42:40;0.95;;;0.53;;
29422;SDS011;16399;51.686;8.684;2023-03-13T14:45:43;1.30;;;0.50;;
29422;SDS011;16399;51.686;8.684;2023-03-13T14:48:46;1.37;;;0.57;;
29422;SDS011;16399;51.686;8.684;2023-03-13T14:51:50;1.35;;;0.57;;
29422;SDS011;16399;51.686;8.684;2023-03-13T14:58:27;0.90;;;0.50;;
29422;SDS011;16399;51.686;8.684;2023-03-13T15:01:30;4.40;;;1.23;;
29422;SDS011;16399;51.686;8.684;2023-03-13T15:07:59;2.75;;;0.50;;
29422;SDS011;16399;51.686;8.684;2023-03-13T15:11:02;2.67;;;0.55;;
29422;SDS011;16399;51.686;8.684;2023-03-13T15:14:37;0.80;;;0.60;;
29422;SDS011;16399;51.686;8.684;2023-03-13T15:17:37;1.67;;;0.65;;
29422;SDS011;16399;51.686;8.684;2023-03-13T15:20:39;1.82;;;0.68;;
29422;SDS011;16399;51.686;8.684;2023-03-13T15:23:45;1.17;;;0.62;;
29422;SDS011;16399;51.686;8.684;2023-03-13T15:29:54;1.27;;;0.70;;
29422;SDS011;16399;51.686;8.684;2023-03-13T15:32:57;1.62;;;0.70;;
29422;SDS011;16399;51.686;8.684;2023-03-13T15:36:00;1.10;;;0.68;;
29422;SDS011;16399;51.686;8.684;2023-03-13T15:39:02;1.10;;;0.70;;
29422;SDS011;16399;51.686;8.684;2023-03-13T15:42:04;1.52;;;0.70;;
29422;SDS011;16399;51.686;8.684;2023-03-13T15:45:07;2.52;;;0.80;;
29422;SDS011;16399;51.686;8.684;2023-03-13T15:48:23;1.65;;;0.72;;
29422;SDS011;16399;51.686;8.684;2023-03-13T15:51:30;2.27;;;0.75;;
29422;SDS011;16399;51.686;8.684;2023-03-13T15:54:33;2.62;;;0.80;;
29422;SDS011;16399;51.686;8.684;2023-03-13T15:57:35;3.33;;;0.90;;
29422;SDS011;16399;51.686;8.684;2023-03-13T16:00:41;1.70;;;0.75;;
29422;SDS011;16399;51.686;8.684;2023-03-13T16:03:45;1.98;;;0.70;;
29422;SDS011;16399;51.686;8.684;2023-03-13T16:06:47;1.95;;;0.62;;
29422;SDS011;16399;51.686;8.684;2023-03-13T16:09:49;1.95;;;0.65;;
29422;SDS011;16399;51.686;8.684;2023-03-13T16:12:52;0.85;;;0.60;;
29422;SDS011;16399;51.686;8.684;2023-03-13T16:15:55;1.17;;;0.70;;
29422;SDS011;16399;51.686;8.684;2023-03-13T16:18:58;3.80;;;0.70;;
29422;SDS011;16399;51.686;8.684;2023-03-13T16:22:02;0.85;;;0.40;;
29422;SDS011;16399;51.686;8.684;2023-03-13T16:25:04;1.40;;;0.70;;
29422;SDS011;16399;51.686;8.684;2023-03-13T16:28:11;2.72;;;0.80;;
29422;SDS011;16399;51.686;8.684;2023-03-13T16:31:15;2.17;;;0.60;;
29422;SDS011;16399;51.686;8.684;2023-03-13T16:34:22;1.42;;;0.70;;
29422;SDS011;16399;51.686;8.684;2023-03-13T16:37:24;0.78;;;0.55;;
29422;SDS011;16399;51.686;8.684;2023-03-13T16:40:29;2.15;;;0.80;;
29422;SDS011;16399;51.686;8.684;2023-03-13T16:43:32;0.88;;;0.50;;
29422;SDS011;16399;51.686;8.684;2023-03-13T16:46:40;1.45;;;0.60;;
29422;SDS011;16399;51.686;8.684;2023-03-13T16:49:39;2.15;;;0.80;;
29422;SDS011;16399;51.686;8.684;2023-03-13T16:52:42;1.45;;;0.60;;
29422;SDS011;16399;51.686;8.684;2023-03-13T16:55:44;2.33;;;0.60;;
29422;SDS011;16399;51.686;8.684;2023-03-13T16:58:46;1.47;;;0.60;;
29422;SDS011;16399;51.686;8.684;2023-03-13T17:01:48;4.00;;;0.82;;
29422;SDS011;16399;51.686;8.684;2023-03-13T17:04:51;2.72;;;0.62;;
29422;SDS011;16399;51.686;8.684;2023-03-13T17:07:54;1.20;;;0.80;;
29422;SDS011;16399;51.686;8.684;2023-03-13T17:10:56;2.25;;;0.72;;
29422;SDS011;16399;51.686;8.684;2023-03-13T17:13:58;1.72;;;0.85;;
29422;SDS011;16399;51.686;8.684;2023-03-13T17:17:03;0.78;;;0.60;;
29422;SDS011;16399;51.686;8.684;2023-03-13T17:20:06;2.08;;;0.70;;
29422;SDS011;16399;51.686;8.684;2023-03-13T17:23:11;2.77;;;0.70;;
29422;SDS011;16399;51.686;8.684;2023-03-13T17:29:19;2.02;;;1.10;;
29422;SDS011;16399;51.686;8.684;2023-03-13T17:32:23;1.87;;;0.63;;
29422;SDS011;16399;51.686;8.684;2023-03-13T17:35:25;2.25;;;0.90;;
29422;SDS011;16399;51.686;8.684;2023-03-13T17:38:28;1.27;;;0.68;;
29422;SDS011;16399;51.686;8.684;2023-03-13T17:41:31;0.90;;;0.60;;
29422;SDS011;16399;51.686;8.684;2023-03-13T17:44:34;2.95;;;0.90;;
29422;SDS011;16399;51.686;8.684;2023-03-13T17:47:38;2.42;;;0.70;;
29422;SDS011;16399;51.686;8.684;2023-03-13T17:50:41;2.65;;;0.75;;
29422;SDS011;16399;51.686;8.684;2023-03-13T17:53:43;0.90;;;0.60;;
29422;SDS011;16399;51.686;8.684;2023-03-13T17:56:46;1.57;;;0.78;;
29422;SDS011;16399;51.686;8.684;2023-03-13T17:59:48;1.17;;;0.60;;
29422;SDS011;16399;51.686;8.684;2023-03-13T18:02:51;1.90;;;0.70;;
29422;SDS011;16399;51.686;8.684;2023-03-13T18:05:53;1.50;;;0.70;;
29422;SDS011;16399;51.686;8.684;2023-03-13T18:08:56;2.47;;;0.90;;
29422;SDS011;16399;51.686;8.684;2023-03-13T18:12:01;2.52;;;0.90;;
29422;SDS011;16399;51.686;8.684;2023-03-13T18:15:04;2.85;;;0.90;;
29422;SDS011;16399;51.686;8.684;2023-03-13T18:18:09;2.30;;;1.07;;
29422;SDS011;16399;51.686;8.684;2023-03-13T18:21:12;3.65;;;1.25;;
29422;SDS011;16399;51.686;8.684;2023-03-13T18:24:14;4.72;;;1.05;;
29422;SDS011;16399;51.686;8.684;2023-03-13T18:27:18;4.85;;;1.05;;
29422;SDS011;16399;51.686;8.684;2023-03-13T18:33:24;3.77;;;1.05;;
29422;SDS011;16399;51.686;8.684;2023-03-13T18:36:26;1.40;;;0.75;;
29422;SDS011;16399;51.686;8.684;2023-03-13T18:39:30;4.20;;;1.20;;
29422;SDS011;16399;51.686;8.684;2023-03-13T18:42:33;3.58;;;1.17;;
29422;SDS011;16399;51.686;8.684;2023-03-13T18:45:35;2.17;;;1.00;;
29422;SDS011;16399;51.686;8.684;2023-03-13T18:48:38;2.67;;;1.25;;
29422;SDS011;16399;51.686;8.684;2023-03-13T18:51:41;4.25;;;1.62;;
29422;SDS011;16399;51.686;8.684;2023-03-13T18:54:44;5.58;;;2.00;;
29422;SDS011;16399;51.686;8.684;2023-03-13T18:57:46;4.65;;;1.80;;
29422;SDS011;16399;51.686;8.684;2023-03-13T19:00:49;3.58;;;1.85;;
29422;SDS011;16399;51.686;8.684;2023-03-13T19:03:51;4.40;;;1.75;;
29422;SDS011;16399;51.686;8.684;2023-03-13T19:06:54;3.95;;;1.55;;
29422;SDS011;16399;51.686;8.684;2023-03-13T19:09:56;5.25;;;2.40;;
29422;SDS011;16399;51.686;8.684;2023-03-13T19:12:58;7.90;;;2.55;;
29422;SDS011;16399;51.686;8.684;2023-03-13T19:16:00;5.22;;;1.92;;
29422;SDS011;16399;51.686;8.684;2023-03-13T19:19:03;5.05;;;1.80;;
29422;SDS011;16399;51.686;8.684;2023-03-13T19:22:13;4.53;;;1.65;;
29422;SDS011;16399;51.686;8.684;2023-03-13T19:25:15;2.92;;;1.20;;
29422;SDS011;16399;51.686;8.684;2023-03-13T19:28:18;6.45;;;2.17;;